sensor_id;sensor_type;location;lat;lon;timestamp;temperature;humidity
9157;DHT22;4613;48.392;9.998;2023-02-16T00:00:37;0.70;99.90
9157;DHT22;4613;48.392;9.998;2023-02-16T00:03:28;0.80;99.90
9157;DHT22;4613;48.392;9.998;2023-02-16T00:06:17;0.70;99.90
9157;DHT22;4613;48.392;9.998;2023-02-16T00:09:07;0.40;99.90
9157;DHT22;4613;48.392;9.998;2023-02-16T00:11:57;0.70;99.90
9157;DHT22;4613;48.392;9.998;2023-02-16T00:15:18;0.50;99.90
9157;DHT22;4613;48.392;9.998;2023-02-16T00:18:16;0.50;99.90
9157;DHT22;4613;48.392;9.998;2023-02-16T00:21:05;0.40;99.90
9157;DHT22;4613;48.392;9.998;2023-02-16T00:23:54;0.40;99.90
9157;DHT22;4613;48.392;9.998;2023-02-16T00:26:44;0.60;99.90
9157;DHT22;4613;48.392;9.998;2023-02-16T00:29:36;0.50;99.90
9157;DHT22;4613;48.392;9.998;2023-02-16T00:32:25;0.40;99.90
9157;DHT22;4613;48.392;9.998;2023-02-16T00:35:15;0.00;99.90
9157;DHT22;4613;48.392;9.998;2023-02-16T00:38:05;0.40;99.90
9157;DHT22;4613;48.392;9.998;2023-02-16T00:40:54;0.00;99.90
9157;DHT22;4613;48.392;9.998;2023-02-16T00:43:44;0.00;99.90
9157;DHT22;4613;48.392;9.998;2023-02-16T00:46:37;0.10;99.90
9157;DHT22;4613;48.392;9.998;2023-02-16T00:49:26;-0.10;99.90
9157;DHT22;4613;48.392;9.998;2023-02-16T00:55:22;-0.30;99.90
9157;DHT22;4613;48.392;9.998;2023-02-16T00:58:26;-0.40;99.90
9157;DHT22;4613;48.392;9.998;2023-02-16T01:01:28;-0.10;99.90
9157;DHT22;4613;48.392;9.998;2023-02-16T01:04:21;0.30;99.90
9157;DHT22;4613;48.392;9.998;2023-02-16T01:07:12;0.10;99.90
9157;DHT22;4613;48.392;9.998;2023-02-16T01:10:22;0.40;99.90
9157;DHT22;4613;48.392;9.998;2023-02-16T01:13:34;-0.20;99.90
9157;DHT22;4613;48.392;9.998;2023-02-16T01:16:38;0.30;99.90
9157;DHT22;4613;48.392;9.998;2023-02-16T01:19:27;0.20;99.90
9157;DHT22;4613;48.392;9.998;2023-02-16T01:22:17;0.30;99.90
9157;DHT22;4613;48.392;9.998;2023-02-16T01:25:07;0.20;99.90
9157;DHT22;4613;48.392;9.998;2023-02-16T01:28:02;-0.20;99.90
9157;DHT22;4613;48.392;9.998;2023-02-16T01:30:53;-0.40;99.90
9157;DHT22;4613;48.392;9.998;2023-02-16T01:33:43;0.10;99.90
9157;DHT22;4613;48.392;9.998;2023-02-16T01:36:36;0.50;99.90
9157;DHT22;4613;48.392;9.998;2023-02-16T01:39:28;0.60;99.90
9157;DHT22;4613;48.392;9.998;2023-02-16T01:42:49;0.50;99.90
9157;DHT22;4613;48.392;9.998;2023-02-16T01:45:42;0.70;99.90
9157;DHT22;4613;48.392;9.998;2023-02-16T01:48:40;0.60;99.90
9157;DHT22;4613;48.392;9.998;2023-02-16T01:51:44;-0.30;99.90
9157;DHT22;4613;48.392;9.998;2023-02-16T01:55:44;-0.40;99.90
9157;DHT22;4613;48.392;9.998;2023-02-16T01:58:44;-0.30;99.90
9157;DHT22;4613;48.392;9.998;2023-02-16T02:01:55;-0.10;99.90
9157;DHT22;4613;48.392;9.998;2023-02-16T02:04:52;-0.10;99.90
9157;DHT22;4613;48.392;9.998;2023-02-16T02:08:11;-0.40;99.90
9157;DHT22;4613;48.392;9.998;2023-02-16T02:11:08;0.00;99.90
9157;DHT22;4613;48.392;9.998;2023-02-16T02:14:19;-0.10;99.90
9157;DHT22;4613;48.392;9.998;2023-02-16T02:17:13;-0.10;99.90
9157;DHT22;4613;48.392;9.998;2023-02-16T02:27:04;0.20;99.90
9157;DHT22;4613;48.392;9.998;2023-02-16T02:30:18;0.20;99.90
9157;DHT22;4613;48.392;9.998;2023-02-16T02:33:53;-0.10;99.90
9157;DHT22;4613;48.392;9.998;2023-02-16T02:36:53;0.10;99.90
9157;DHT22;4613;48.392;9.998;2023-02-16T02:43:13;0.50;99.90
9157;DHT22;4613;48.392;9.998;2023-02-16T02:49:03;0.20;99.90
9157;DHT22;4613;48.392;9.998;2023-02-16T02:51:53;0.20;99.90
9157;DHT22;4613;48.392;9.998;2023-02-16T02:54:43;0.10;99.90
9157;DHT22;4613;48.392;9.998;2023-02-16T02:57:53;0.30;99.90
9157;DHT22;4613;48.392;9.998;2023-02-16T03:01:02;0.20;99.90
9157;DHT22;4613;48.392;9.998;2023-02-16T03:03:55;0.20;99.90
9157;DHT22;4613;48.392;9.998;2023-02-16T03:06:48;0.30;99.90
9157;DHT22;4613;48.392;9.998;2023-02-16T03:09:38;0.10;99.90
9157;DHT22;4613;48.392;9.998;2023-02-16T03:12:27;0.10;99.90
9157;DHT22;4613;48.392;9.998;2023-02-16T03:15:35;0.20;99.90
9157;DHT22;4613;48.392;9.998;2023-02-16T03:18:26;0.40;99.90
9157;DHT22;4613;48.392;9.998;2023-02-16T03:21:35;0.20;99.90
9157;DHT22;4613;48.392;9.998;2023-02-16T03:24:44;0.30;99.90
9157;DHT22;4613;48.392;9.998;2023-02-16T03:27:54;0.40;99.90
9157;DHT22;4613;48.392;9.998;2023-02-16T03:31:05;0.40;99.90
9157;DHT22;4613;48.392;9.998;2023-02-16T03:33:55;0.40;99.90
9157;DHT22;4613;48.392;9.998;2023-02-16T03:36:53;0.30;99.90
9157;DHT22;4613;48.392;9.998;2023-02-16T03:39:47;0.40;99.90
9157;DHT22;4613;48.392;9.998;2023-02-16T03:43:03;0.30;99.90
9157;DHT22;4613;48.392;9.998;2023-02-16T03:45:54;0.20;99.90
9157;DHT22;4613;48.392;9.998;2023-02-16T03:48:43;0.20;99.90
9157;DHT22;4613;48.392;9.998;2023-02-16T03:51:33;0.00;99.90
9157;DHT22;4613;48.392;9.998;2023-02-16T03:54:22;0.00;99.90
9157;DHT22;4613;48.392;9.998;2023-02-16T03:57:12;0.00;99.90
9157;DHT22;4613;48.392;9.998;2023-02-16T04:00:02;0.10;99.90
9157;DHT22;4613;48.392;9.998;2023-02-16T04:02:51;0.10;99.90
9157;DHT22;4613;48.392;9.998;2023-02-16T04:05:41;-0.10;99.90
9157;DHT22;4613;48.392;9.998;2023-02-16T04:08:31;0.10;99.90
9157;DHT22;4613;48.392;9.998;2023-02-16T04:11:21;0.10;99.90
9157;DHT22;4613;48.392;9.998;2023-02-16T04:14:28;0.10;99.90
9157;DHT22;4613;48.392;9.998;2023-02-16T04:17:24;0.20;99.90
9157;DHT22;4613;48.392;9.998;2023-02-16T04:20:19;0.20;99.90
9157;DHT22;4613;48.392;9.998;2023-02-16T04:23:08;0.50;99.90
9157;DHT22;4613;48.392;9.998;2023-02-16T04:25:57;0.00;99.90
9157;DHT22;4613;48.392;9.998;2023-02-16T04:28:47;0.10;99.90
9157;DHT22;4613;48.392;9.998;2023-02-16T04:31:37;-0.10;99.90
9157;DHT22;4613;48.392;9.998;2023-02-16T04:34:26;0.10;99.90
9157;DHT22;4613;48.392;9.998;2023-02-16T04:37:19;0.20;99.90
9157;DHT22;4613;48.392;9.998;2023-02-16T04:40:10;0.10;99.90
9157;DHT22;4613;48.392;9.998;2023-02-16T04:43:01;-0.10;99.90
9157;DHT22;4613;48.392;9.998;2023-02-16T04:45:51;-0.20;99.90
9157;DHT22;4613;48.392;9.998;2023-02-16T04:48:40;-0.10;99.90
9157;DHT22;4613;48.392;9.998;2023-02-16T04:51:30;-0.10;99.90
9157;DHT22;4613;48.392;9.998;2023-02-16T04:54:20;-0.10;99.90
9157;DHT22;4613;48.392;9.998;2023-02-16T04:57:11;-0.20;99.90
9157;DHT22;4613;48.392;9.998;2023-02-16T05:00:02;0.20;99.90
9157;DHT22;4613;48.392;9.998;2023-02-16T05:02:53;0.30;99.90
9157;DHT22;4613;48.392;9.998;2023-02-16T05:05:44;0.20;99.90
9157;DHT22;4613;48.392;9.998;2023-02-16T05:08:33;0.30;99.90
9157;DHT22;4613;48.392;9.998;2023-02-16T05:11:22;0.10;99.90
9157;DHT22;4613;48.392;9.998;2023-02-16T05:14:32;0.00;99.90
9157;DHT22;4613;48.392;9.998;2023-02-16T05:17:31;0.00;99.90
9157;DHT22;4613;48.392;9.998;2023-02-16T05:20:21;0.00;99.90
9157;DHT22;4613;48.392;9.998;2023-02-16T05:23:31;0.10;99.90
9157;DHT22;4613;48.392;9.998;2023-02-16T05:26:20;0.10;99.90
9157;DHT22;4613;48.392;9.998;2023-02-16T05:29:09;0.10;99.90
9157;DHT22;4613;48.392;9.998;2023-02-16T05:32:00;0.10;99.90
9157;DHT22;4613;48.392;9.998;2023-02-16T05:34:50;0.30;99.90
9157;DHT22;4613;48.392;9.998;2023-02-16T05:37:39;0.30;99.90
9157;DHT22;4613;48.392;9.998;2023-02-16T05:40:33;0.20;99.90
9157;DHT22;4613;48.392;9.998;2023-02-16T05:43:26;0.20;99.90
9157;DHT22;4613;48.392;9.998;2023-02-16T05:46:15;0.20;99.90
9157;DHT22;4613;48.392;9.998;2023-02-16T05:49:05;0.20;99.90
9157;DHT22;4613;48.392;9.998;2023-02-16T05:51:55;0.10;99.90
9157;DHT22;4613;48.392;9.998;2023-02-16T05:54:44;0.30;99.90
9157;DHT22;4613;48.392;9.998;2023-02-16T05:57:33;0.30;99.90
9157;DHT22;4613;48.392;9.998;2023-02-16T06:00:24;0.40;99.90
9157;DHT22;4613;48.392;9.998;2023-02-16T06:03:13;0.40;99.90
9157;DHT22;4613;48.392;9.998;2023-02-16T06:06:04;0.30;99.90
9157;DHT22;4613;48.392;9.998;2023-02-16T06:08:55;0.30;99.90
9157;DHT22;4613;48.392;9.998;2023-02-16T06:11:44;0.20;99.90
9157;DHT22;4613;48.392;9.998;2023-02-16T06:14:34;0.20;99.90
9157;DHT22;4613;48.392;9.998;2023-02-16T06:17:24;0.30;99.90
9157;DHT22;4613;48.392;9.998;2023-02-16T06:20:14;0.30;99.90
9157;DHT22;4613;48.392;9.998;2023-02-16T06:23:05;0.30;99.90
9157;DHT22;4613;48.392;9.998;2023-02-16T06:26:04;0.40;99.90
9157;DHT22;4613;48.392;9.998;2023-02-16T06:28:54;0.40;99.90
9157;DHT22;4613;48.392;9.998;2023-02-16T06:31:44;0.40;99.90
9157;DHT22;4613;48.392;9.998;2023-02-16T06:34:33;0.60;99.90
9157;DHT22;4613;48.392;9.998;2023-02-16T06:37:24;0.50;99.90
9157;DHT22;4613;48.392;9.998;2023-02-16T06:40:14;0.50;99.90
9157;DHT22;4613;48.392;9.998;2023-02-16T06:43:05;0.50;99.90
9157;DHT22;4613;48.392;9.998;2023-02-16T06:45:54;0.40;99.90
9157;DHT22;4613;48.392;9.998;2023-02-16T06:48:43;0.40;99.90
9157;DHT22;4613;48.392;9.998;2023-02-16T06:51:33;0.50;99.90
9157;DHT22;4613;48.392;9.998;2023-02-16T06:54:22;0.40;99.90
9157;DHT22;4613;48.392;9.998;2023-02-16T06:57:12;0.50;99.90
9157;DHT22;4613;48.392;9.998;2023-02-16T07:00:02;0.70;99.90
9157;DHT22;4613;48.392;9.998;2023-02-16T07:02:54;0.60;99.90
9157;DHT22;4613;48.392;9.998;2023-02-16T07:05:44;0.60;99.90
9157;DHT22;4613;48.392;9.998;2023-02-16T07:08:33;0.60;99.90
9157;DHT22;4613;48.392;9.998;2023-02-16T07:11:24;0.50;99.90
9157;DHT22;4613;48.392;9.998;2023-02-16T07:14:14;0.70;99.90
9157;DHT22;4613;48.392;9.998;2023-02-16T07:17:04;0.60;99.90
9157;DHT22;4613;48.392;9.998;2023-02-16T07:19:55;0.60;99.90
9157;DHT22;4613;48.392;9.998;2023-02-16T07:22:45;0.90;99.90
9157;DHT22;4613;48.392;9.998;2023-02-16T07:25:35;0.80;99.90
9157;DHT22;4613;48.392;9.998;2023-02-16T07:28:24;0.70;99.90
9157;DHT22;4613;48.392;9.998;2023-02-16T07:31:15;1.60;99.90
9157;DHT22;4613;48.392;9.998;2023-02-16T07:34:08;2.20;99.90
9157;DHT22;4613;48.392;9.998;2023-02-16T07:36:57;1.20;99.90
9157;DHT22;4613;48.392;9.998;2023-02-16T07:39:46;1.00;99.90
9157;DHT22;4613;48.392;9.998;2023-02-16T07:42:36;0.90;99.90
9157;DHT22;4613;48.392;9.998;2023-02-16T07:45:26;0.90;99.90
9157;DHT22;4613;48.392;9.998;2023-02-16T07:48:15;1.40;99.90
9157;DHT22;4613;48.392;9.998;2023-02-16T07:51:04;1.50;99.90
9157;DHT22;4613;48.392;9.998;2023-02-16T07:53:54;1.80;99.90
9157;DHT22;4613;48.392;9.998;2023-02-16T07:56:43;1.80;99.90
9157;DHT22;4613;48.392;9.998;2023-02-16T07:59:32;1.90;99.90
9157;DHT22;4613;48.392;9.998;2023-02-16T08:02:22;2.20;99.90
9157;DHT22;4613;48.392;9.998;2023-02-16T08:05:11;2.30;99.90
9157;DHT22;4613;48.392;9.998;2023-02-16T08:08:01;2.50;99.90
9157;DHT22;4613;48.392;9.998;2023-02-16T08:10:51;2.90;99.90
9157;DHT22;4613;48.392;9.998;2023-02-16T08:13:42;3.00;99.90
9157;DHT22;4613;48.392;9.998;2023-02-16T08:16:34;3.10;99.90
9157;DHT22;4613;48.392;9.998;2023-02-16T08:19:24;3.60;99.90
9157;DHT22;4613;48.392;9.998;2023-02-16T08:22:13;3.10;99.90
9157;DHT22;4613;48.392;9.998;2023-02-16T08:25:03;3.20;99.90
9157;DHT22;4613;48.392;9.998;2023-02-16T08:27:53;3.60;99.90
9157;DHT22;4613;48.392;9.998;2023-02-16T08:30:43;3.50;99.90
9157;DHT22;4613;48.392;9.998;2023-02-16T08:33:33;3.80;99.90
9157;DHT22;4613;48.392;9.998;2023-02-16T08:36:25;4.50;99.90
9157;DHT22;4613;48.392;9.998;2023-02-16T08:39:18;3.80;99.90
9157;DHT22;4613;48.392;9.998;2023-02-16T08:42:10;4.60;99.90
9157;DHT22;4613;48.392;9.998;2023-02-16T08:45:01;4.50;99.90
9157;DHT22;4613;48.392;9.998;2023-02-16T08:47:51;4.60;99.90
9157;DHT22;4613;48.392;9.998;2023-02-16T08:50:46;5.00;99.90
9157;DHT22;4613;48.392;9.998;2023-02-16T08:53:41;5.10;99.90
9157;DHT22;4613;48.392;9.998;2023-02-16T08:56:30;5.20;99.90
9157;DHT22;4613;48.392;9.998;2023-02-16T08:59:30;6.00;99.90
9157;DHT22;4613;48.392;9.998;2023-02-16T09:02:20;5.80;99.90
9157;DHT22;4613;48.392;9.998;2023-02-16T09:05:10;5.80;99.90
9157;DHT22;4613;48.392;9.998;2023-02-16T09:07:59;6.10;99.90
9157;DHT22;4613;48.392;9.998;2023-02-16T09:10:48;5.70;99.90
9157;DHT22;4613;48.392;9.998;2023-02-16T09:13:40;6.40;99.90
9157;DHT22;4613;48.392;9.998;2023-02-16T09:16:30;6.70;99.90
9157;DHT22;4613;48.392;9.998;2023-02-16T09:19:24;7.00;99.90
9157;DHT22;4613;48.392;9.998;2023-02-16T09:22:14;6.10;99.90
9157;DHT22;4613;48.392;9.998;2023-02-16T09:25:05;6.30;99.90
9157;DHT22;4613;48.392;9.998;2023-02-16T09:27:55;7.20;99.90
9157;DHT22;4613;48.392;9.998;2023-02-16T09:30:46;7.70;99.90
9157;DHT22;4613;48.392;9.998;2023-02-16T09:33:36;7.10;99.90
9157;DHT22;4613;48.392;9.998;2023-02-16T09:36:25;7.50;99.90
9157;DHT22;4613;48.392;9.998;2023-02-16T09:39:16;7.50;99.90
9157;DHT22;4613;48.392;9.998;2023-02-16T09:42:32;8.40;99.90
9157;DHT22;4613;48.392;9.998;2023-02-16T09:45:24;7.40;99.90
9157;DHT22;4613;48.392;9.998;2023-02-16T09:48:26;8.30;99.90
9157;DHT22;4613;48.392;9.998;2023-02-16T09:51:24;6.80;99.90
9157;DHT22;4613;48.392;9.998;2023-02-16T10:01:10;8.90;99.90
9157;DHT22;4613;48.392;9.998;2023-02-16T10:04:27;8.60;99.90
9157;DHT22;4613;48.392;9.998;2023-02-16T10:07:41;8.90;99.90
9157;DHT22;4613;48.392;9.998;2023-02-16T10:11:03;10.30;99.90
9157;DHT22;4613;48.392;9.998;2023-02-16T10:14:43;10.00;99.90
9157;DHT22;4613;48.392;9.998;2023-02-16T10:20:42;8.10;99.90
9157;DHT22;4613;48.392;9.998;2023-02-16T10:23:46;8.00;99.90
9157;DHT22;4613;48.392;9.998;2023-02-16T10:26:45;8.30;99.90
9157;DHT22;4613;48.392;9.998;2023-02-16T10:29:36;8.10;99.90
9157;DHT22;4613;48.392;9.998;2023-02-16T10:32:28;7.90;99.90
9157;DHT22;4613;48.392;9.998;2023-02-16T10:35:45;8.40;99.90
9157;DHT22;4613;48.392;9.998;2023-02-16T10:38:48;8.80;99.90
9157;DHT22;4613;48.392;9.998;2023-02-16T10:41:44;8.30;99.90
9157;DHT22;4613;48.392;9.998;2023-02-16T10:44:41;8.70;99.90
9157;DHT22;4613;48.392;9.998;2023-02-16T10:47:39;9.70;99.90
9157;DHT22;4613;48.392;9.998;2023-02-16T10:50:46;10.40;99.90
9157;DHT22;4613;48.392;9.998;2023-02-16T10:53:49;10.30;99.90
9157;DHT22;4613;48.392;9.998;2023-02-16T10:56:51;9.40;99.90
9157;DHT22;4613;48.392;9.998;2023-02-16T10:59:44;9.40;99.90
9157;DHT22;4613;48.392;9.998;2023-02-16T11:08:14;10.60;99.90
9157;DHT22;4613;48.392;9.998;2023-02-16T11:11:09;10.70;99.90
9157;DHT22;4613;48.392;9.998;2023-02-16T11:14:03;10.90;99.90
9157;DHT22;4613;48.392;9.998;2023-02-16T11:17:11;11.10;99.90
9157;DHT22;4613;48.392;9.998;2023-02-16T11:20:04;11.40;99.90
9157;DHT22;4613;48.392;9.998;2023-02-16T11:23:13;11.10;99.90
9157;DHT22;4613;48.392;9.998;2023-02-16T11:29:17;11.30;99.90
9157;DHT22;4613;48.392;9.998;2023-02-16T11:32:09;11.40;99.90
9157;DHT22;4613;48.392;9.998;2023-02-16T11:34:58;12.20;99.90
9157;DHT22;4613;48.392;9.998;2023-02-16T11:37:48;11.50;99.90
9157;DHT22;4613;48.392;9.998;2023-02-16T11:40:38;11.40;99.90
9157;DHT22;4613;48.392;9.998;2023-02-16T11:43:30;11.40;99.90
9157;DHT22;4613;48.392;9.998;2023-02-16T11:46:21;11.00;99.90
9157;DHT22;4613;48.392;9.998;2023-02-16T11:49:32;10.90;99.90
9157;DHT22;4613;48.392;9.998;2023-02-16T11:55:29;11.50;99.90
9157;DHT22;4613;48.392;9.998;2023-02-16T11:58:26;11.80;99.90
9157;DHT22;4613;48.392;9.998;2023-02-16T12:01:55;11.70;99.90
9157;DHT22;4613;48.392;9.998;2023-02-16T12:08:24;11.70;99.90
9157;DHT22;4613;48.392;9.998;2023-02-16T12:11:23;11.90;99.90
9157;DHT22;4613;48.392;9.998;2023-02-16T12:14:18;12.90;99.90
9157;DHT22;4613;48.392;9.998;2023-02-16T12:23:53;11.60;99.90
9157;DHT22;4613;48.392;9.998;2023-02-16T12:26:57;12.80;99.90
9157;DHT22;4613;48.392;9.998;2023-02-16T12:46:02;13.60;99.90
9157;DHT22;4613;48.392;9.998;2023-02-16T12:52:04;12.10;99.90
9157;DHT22;4613;48.392;9.998;2023-02-16T12:55:06;12.10;99.90
9157;DHT22;4613;48.392;9.998;2023-02-16T13:01:12;11.90;99.90
9157;DHT22;4613;48.392;9.998;2023-02-16T13:07:28;12.20;99.90
9157;DHT22;4613;48.392;9.998;2023-02-16T13:10:23;12.90;99.90
9157;DHT22;4613;48.392;9.998;2023-02-16T13:13:20;12.90;99.90
9157;DHT22;4613;48.392;9.998;2023-02-16T13:19:43;12.60;99.90
9157;DHT22;4613;48.392;9.998;2023-02-16T13:29:12;12.90;99.90
9157;DHT22;4613;48.392;9.998;2023-02-16T13:32:24;12.50;99.90
9157;DHT22;4613;48.392;9.998;2023-02-16T13:45:19;12.60;99.40
9157;DHT22;4613;48.392;9.998;2023-02-16T13:48:30;12.40;99.10
9157;DHT22;4613;48.392;9.998;2023-02-16T13:51:23;12.20;98.70
9157;DHT22;4613;48.392;9.998;2023-02-16T13:54:32;12.20;98.10
9157;DHT22;4613;48.392;9.998;2023-02-16T14:00:46;12.40;97.80
9157;DHT22;4613;48.392;9.998;2023-02-16T14:03:37;12.40;97.20
9157;DHT22;4613;48.392;9.998;2023-02-16T14:15:04;12.30;97.30
9157;DHT22;4613;48.392;9.998;2023-02-16T14:17:56;12.30;97.30
9157;DHT22;4613;48.392;9.998;2023-02-16T14:20:45;12.10;97.20
9157;DHT22;4613;48.392;9.998;2023-02-16T14:23:35;12.00;97.10
9157;DHT22;4613;48.392;9.998;2023-02-16T14:26:25;12.00;97.40
9157;DHT22;4613;48.392;9.998;2023-02-16T14:29:17;11.90;97.60
9157;DHT22;4613;48.392;9.998;2023-02-16T14:32:23;11.90;97.30
9157;DHT22;4613;48.392;9.998;2023-02-16T14:35:24;11.90;97.30
9157;DHT22;4613;48.392;9.998;2023-02-16T14:38:21;11.90;97.80
9157;DHT22;4613;48.392;9.998;2023-02-16T14:41:34;11.90;97.80
9157;DHT22;4613;48.392;9.998;2023-02-16T14:44:42;11.90;97.70
9157;DHT22;4613;48.392;9.998;2023-02-16T14:47:54;11.80;97.10
9157;DHT22;4613;48.392;9.998;2023-02-16T14:54:15;11.70;96.70
9157;DHT22;4613;48.392;9.998;2023-02-16T14:57:17;11.70;97.00
9157;DHT22;4613;48.392;9.998;2023-02-16T15:00:31;11.70;97.30
9157;DHT22;4613;48.392;9.998;2023-02-16T15:03:36;11.70;97.40
9157;DHT22;4613;48.392;9.998;2023-02-16T15:06:47;11.80;97.40
9157;DHT22;4613;48.392;9.998;2023-02-16T15:09:40;11.70;97.10
9157;DHT22;4613;48.392;9.998;2023-02-16T15:12:30;11.70;96.60
9157;DHT22;4613;48.392;9.998;2023-02-16T15:15:28;11.70;96.70
9157;DHT22;4613;48.392;9.998;2023-02-16T15:18:23;11.70;97.10
9157;DHT22;4613;48.392;9.998;2023-02-16T15:21:22;11.60;96.60
9157;DHT22;4613;48.392;9.998;2023-02-16T15:24:21;11.60;96.70
9157;DHT22;4613;48.392;9.998;2023-02-16T15:27:20;11.50;96.70
9157;DHT22;4613;48.392;9.998;2023-02-16T15:30:31;11.40;96.60
9157;DHT22;4613;48.392;9.998;2023-02-16T15:36:20;11.30;96.90
9157;DHT22;4613;48.392;9.998;2023-02-16T15:39:23;11.20;97.20
9157;DHT22;4613;48.392;9.998;2023-02-16T15:45:24;11.30;97.30
9157;DHT22;4613;48.392;9.998;2023-02-16T15:48:26;11.20;97.40
9157;DHT22;4613;48.392;9.998;2023-02-16T15:51:32;11.20;97.70
9157;DHT22;4613;48.392;9.998;2023-02-16T15:54:27;11.20;97.80
9157;DHT22;4613;48.392;9.998;2023-02-16T15:57:32;11.20;98.00
9157;DHT22;4613;48.392;9.998;2023-02-16T16:00:25;11.10;98.00
9157;DHT22;4613;48.392;9.998;2023-02-16T16:03:16;11.10;98.00
9157;DHT22;4613;48.392;9.998;2023-02-16T16:06:06;11.10;98.10
9157;DHT22;4613;48.392;9.998;2023-02-16T16:08:56;11.10;98.30
9157;DHT22;4613;48.392;9.998;2023-02-16T16:11:47;11.00;98.40
9157;DHT22;4613;48.392;9.998;2023-02-16T16:14:41;11.00;98.50
9157;DHT22;4613;48.392;9.998;2023-02-16T16:17:36;10.90;98.50
9157;DHT22;4613;48.392;9.998;2023-02-16T16:20:37;10.90;98.50
9157;DHT22;4613;48.392;9.998;2023-02-16T16:23:27;10.90;98.50
9157;DHT22;4613;48.392;9.998;2023-02-16T16:26:19;10.90;98.40
9157;DHT22;4613;48.392;9.998;2023-02-16T16:29:28;10.90;98.40
9157;DHT22;4613;48.392;9.998;2023-02-16T16:32:26;10.80;98.40
9157;DHT22;4613;48.392;9.998;2023-02-16T16:35:22;10.80;98.50
9157;DHT22;4613;48.392;9.998;2023-02-16T16:38:32;10.70;98.60
9157;DHT22;4613;48.392;9.998;2023-02-16T16:41:27;10.70;98.40
9157;DHT22;4613;48.392;9.998;2023-02-16T16:47:38;10.40;98.70
9157;DHT22;4613;48.392;9.998;2023-02-16T16:50:37;10.40;98.90
9157;DHT22;4613;48.392;9.998;2023-02-16T16:56:37;10.20;99.20
9157;DHT22;4613;48.392;9.998;2023-02-16T16:59:29;10.20;99.80
9157;DHT22;4613;48.392;9.998;2023-02-16T17:02:19;10.50;99.90
9157;DHT22;4613;48.392;9.998;2023-02-16T17:05:09;10.40;99.70
9157;DHT22;4613;48.392;9.998;2023-02-16T17:07:58;10.40;99.90
9157;DHT22;4613;48.392;9.998;2023-02-16T17:10:48;10.30;99.90
9157;DHT22;4613;48.392;9.998;2023-02-16T17:13:37;10.10;99.90
9157;DHT22;4613;48.392;9.998;2023-02-16T17:16:30;10.00;99.90
9157;DHT22;4613;48.392;9.998;2023-02-16T17:19:21;9.70;99.90
9157;DHT22;4613;48.392;9.998;2023-02-16T17:22:12;9.70;99.90
9157;DHT22;4613;48.392;9.998;2023-02-16T17:25:02;9.70;99.90
9157;DHT22;4613;48.392;9.998;2023-02-16T17:27:51;9.60;99.90
9157;DHT22;4613;48.392;9.998;2023-02-16T17:30:42;9.60;99.90
9157;DHT22;4613;48.392;9.998;2023-02-16T17:33:32;9.70;99.90
9157;DHT22;4613;48.392;9.998;2023-02-16T17:36:24;9.70;99.90
9157;DHT22;4613;48.392;9.998;2023-02-16T17:39:14;9.70;99.90
9157;DHT22;4613;48.392;9.998;2023-02-16T17:42:05;9.70;99.90
9157;DHT22;4613;48.392;9.998;2023-02-16T17:44:55;9.70;99.90
9157;DHT22;4613;48.392;9.998;2023-02-16T17:47:46;9.70;99.90
9157;DHT22;4613;48.392;9.998;2023-02-16T17:50:37;9.80;99.90
9157;DHT22;4613;48.392;9.998;2023-02-16T17:53:27;9.80;99.90
9157;DHT22;4613;48.392;9.998;2023-02-16T17:56:19;9.70;99.90
9157;DHT22;4613;48.392;9.998;2023-02-16T17:59:10;9.40;99.90
9157;DHT22;4613;48.392;9.998;2023-02-16T18:02:01;9.40;99.90
9157;DHT22;4613;48.392;9.998;2023-02-16T18:04:51;9.40;99.90
9157;DHT22;4613;48.392;9.998;2023-02-16T18:07:40;9.40;99.90
9157;DHT22;4613;48.392;9.998;2023-02-16T18:10:43;9.40;99.90
9157;DHT22;4613;48.392;9.998;2023-02-16T18:13:36;9.40;99.90
9157;DHT22;4613;48.392;9.998;2023-02-16T18:16:26;9.70;99.90
9157;DHT22;4613;48.392;9.998;2023-02-16T18:19:19;9.50;99.90
9157;DHT22;4613;48.392;9.998;2023-02-16T18:22:08;9.50;99.90
9157;DHT22;4613;48.392;9.998;2023-02-16T18:24:58;9.50;99.90
9157;DHT22;4613;48.392;9.998;2023-02-16T18:27:48;9.30;99.90
9157;DHT22;4613;48.392;9.998;2023-02-16T18:30:37;9.20;99.90
9157;DHT22;4613;48.392;9.998;2023-02-16T18:33:28;9.10;99.90
9157;DHT22;4613;48.392;9.998;2023-02-16T18:36:18;8.90;99.90
9157;DHT22;4613;48.392;9.998;2023-02-16T18:39:08;8.90;99.90
9157;DHT22;4613;48.392;9.998;2023-02-16T18:41:57;9.00;99.90
9157;DHT22;4613;48.392;9.998;2023-02-16T18:44:47;9.10;99.90
9157;DHT22;4613;48.392;9.998;2023-02-16T18:47:38;9.00;99.90
9157;DHT22;4613;48.392;9.998;2023-02-16T18:50:28;8.80;99.90
9157;DHT22;4613;48.392;9.998;2023-02-16T18:53:17;8.90;99.90
9157;DHT22;4613;48.392;9.998;2023-02-16T18:56:09;8.80;99.90
9157;DHT22;4613;48.392;9.998;2023-02-16T18:58:58;9.00;99.90
9157;DHT22;4613;48.392;9.998;2023-02-16T19:01:54;9.00;99.90
9157;DHT22;4613;48.392;9.998;2023-02-16T19:04:43;9.10;99.90
9157;DHT22;4613;48.392;9.998;2023-02-16T19:07:33;8.90;99.90
9157;DHT22;4613;48.392;9.998;2023-02-16T19:10:23;9.00;99.90
9157;DHT22;4613;48.392;9.998;2023-02-16T19:13:13;8.80;99.90
9157;DHT22;4613;48.392;9.998;2023-02-16T19:16:03;9.00;99.90
9157;DHT22;4613;48.392;9.998;2023-02-16T19:18:52;9.00;99.90
9157;DHT22;4613;48.392;9.998;2023-02-16T19:21:42;9.00;99.90
9157;DHT22;4613;48.392;9.998;2023-02-16T19:24:32;9.10;99.90
9157;DHT22;4613;48.392;9.998;2023-02-16T19:27:22;9.10;99.90
9157;DHT22;4613;48.392;9.998;2023-02-16T19:30:12;9.10;99.90
9157;DHT22;4613;48.392;9.998;2023-02-16T19:33:02;9.00;99.90
9157;DHT22;4613;48.392;9.998;2023-02-16T19:36:05;9.00;99.90
9157;DHT22;4613;48.392;9.998;2023-02-16T19:38:55;8.80;99.90
9157;DHT22;4613;48.392;9.998;2023-02-16T19:41:44;8.70;99.90
9157;DHT22;4613;48.392;9.998;2023-02-16T19:44:35;8.70;99.90
9157;DHT22;4613;48.392;9.998;2023-02-16T19:47:25;8.70;99.90
9157;DHT22;4613;48.392;9.998;2023-02-16T19:50:15;8.70;99.90
9157;DHT22;4613;48.392;9.998;2023-02-16T19:53:05;8.50;99.90
9157;DHT22;4613;48.392;9.998;2023-02-16T19:55:56;8.40;99.90
9157;DHT22;4613;48.392;9.998;2023-02-16T19:58:47;8.60;99.90
9157;DHT22;4613;48.392;9.998;2023-02-16T20:01:37;8.70;99.90
9157;DHT22;4613;48.392;9.998;2023-02-16T20:04:28;8.70;99.90
9157;DHT22;4613;48.392;9.998;2023-02-16T20:07:19;8.70;99.90
9157;DHT22;4613;48.392;9.998;2023-02-16T20:10:09;8.80;99.90
9157;DHT22;4613;48.392;9.998;2023-02-16T20:12:59;8.80;99.90
9157;DHT22;4613;48.392;9.998;2023-02-16T20:15:49;8.80;99.90
9157;DHT22;4613;48.392;9.998;2023-02-16T20:18:39;8.60;99.90
9157;DHT22;4613;48.392;9.998;2023-02-16T20:21:29;8.60;99.90
9157;DHT22;4613;48.392;9.998;2023-02-16T20:24:19;8.60;99.90
9157;DHT22;4613;48.392;9.998;2023-02-16T20:27:10;8.70;99.90
9157;DHT22;4613;48.392;9.998;2023-02-16T20:30:02;8.70;99.90
9157;DHT22;4613;48.392;9.998;2023-02-16T20:32:54;8.70;99.90
9157;DHT22;4613;48.392;9.998;2023-02-16T20:35:51;8.70;99.90
9157;DHT22;4613;48.392;9.998;2023-02-16T20:38:40;8.70;99.90
9157;DHT22;4613;48.392;9.998;2023-02-16T20:41:33;8.60;99.90
9157;DHT22;4613;48.392;9.998;2023-02-16T20:44:24;8.70;99.90
9157;DHT22;4613;48.392;9.998;2023-02-16T20:47:14;8.70;99.90
9157;DHT22;4613;48.392;9.998;2023-02-16T20:50:05;8.70;99.90
9157;DHT22;4613;48.392;9.998;2023-02-16T20:52:54;8.50;99.90
9157;DHT22;4613;48.392;9.998;2023-02-16T20:55:44;8.40;99.90
9157;DHT22;4613;48.392;9.998;2023-02-16T20:58:35;8.20;99.90
9157;DHT22;4613;48.392;9.998;2023-02-16T21:01:37;8.40;99.90
9157;DHT22;4613;48.392;9.998;2023-02-16T21:04:28;8.10;99.90
9157;DHT22;4613;48.392;9.998;2023-02-16T21:07:22;8.10;99.90
9157;DHT22;4613;48.392;9.998;2023-02-16T21:19:50;8.40;99.90
9157;DHT22;4613;48.392;9.998;2023-02-16T21:22:39;8.30;99.90